Time;durP1;ratioP1;P1;durP2;ratioP2;P2;SDS_P1;SDS_P2;PMS_P1;PMS_P2;Temp;Humidity;BMP_temperature;BMP_pressure;BME280_temperature;BME280_humidity;BME280_pressure;Samples;Min_cycle;Max_cycle;Signal;HPM_P1;HPM_P2
2023/01/21 00:01:14;;;;;;;8.13;3.20;;;-0.10;97.30;;;;;;5093880;28;20428;-85
2023/01/21 00:03:40;;;;;;;11.93;4.23;;;-0.10;97.30;;;;;;5075958;28;20488;-84
2023/01/21 00:06:06;;;;;;;10.17;3.87;;;-0.10;97.30;;;;;;5094721;28;20408;-85
2023/01/21 00:08:32;;;;;;;3.93;3.50;;;-0.10;97.30;;;;;;5075746;28;20413;-85
2023/01/21 00:11:05;;;;;;;33.30;8.30;;;-0.10;97.30;;;;;;5075538;28;20428;-85
2023/01/21 00:13:33;;;;;;;10.50;5.50;;;-0.10;97.30;;;;;;5076264;28;20178;-87
2023/01/21 00:15:58;;;;;;;4.33;4.07;;;-0.10;97.30;;;;;;5076111;28;20854;-88
2023/01/21 00:18:24;;;;;;;37.27;5.80;;;-0.10;97.30;;;;;;5094320;28;20423;-86
2023/01/21 00:20:49;;;;;;;6.60;4.03;;;0.00;97.30;;;;;;5075608;28;20204;-85
2023/01/21 00:23:15;;;;;;;3.50;3.20;;;0.00;97.30;;;;;;5075164;28;20189;-85
2023/01/21 00:25:40;;;;;;;5.13;3.73;;;0.00;97.30;;;;;;5075275;28;20182;-87
2023/01/21 00:28:06;;;;;;;3.73;3.10;;;0.00;97.30;;;;;;5093241;28;20244;-85
2023/01/21 00:30:32;;;;;;;9.03;4.30;;;0.00;97.30;;;;;;5075585;28;20198;-85
2023/01/21 00:32:57;;;;;;;4.97;4.40;;;0.00;97.30;;;;;;5093352;28;20189;-86
2023/01/21 00:35:23;;;;;;;4.60;4.30;;;0.00;97.30;;;;;;5064226;28;20484;-85
2023/01/21 00:37:50;;;;;;;13.73;7.10;;;0.00;97.30;;;;;;5055583;28;20733;-85
2023/01/21 00:40:16;;;;;;;3.10;2.60;;;0.00;97.30;;;;;;5055691;28;20182;-84
2023/01/21 00:42:41;;;;;;;6.40;5.57;;;0.00;97.30;;;;;;5073211;28;20413;-85
2023/01/21 00:45:07;;;;;;;4.27;3.13;;;0.00;97.30;;;;;;5055239;28;20171;-84
2023/01/21 00:47:33;;;;;;;3.77;3.60;;;0.00;97.30;;;;;;5054647;28;20182;-85
2023/01/21 00:49:58;;;;;;;4.27;2.60;;;0.00;97.30;;;;;;5073047;28;20784;-85
2023/01/21 00:52:25;;;;;;;26.07;5.53;;;0.00;97.30;;;;;;5055351;28;20229;-87
2023/01/21 00:54:50;;;;;;;9.33;6.50;;;0.00;97.30;;;;;;5073228;28;20225;-85
2023/01/21 00:57:16;;;;;;;6.83;3.30;;;0.00;97.30;;;;;;5073470;28;20975;-87
2023/01/21 00:59:41;;;;;;;62.20;7.33;;;0.10;97.30;;;;;;5072274;28;20183;-85
2023/01/21 01:02:08;;;;;;;7.13;4.10;;;0.10;97.30;;;;;;5071593;28;20206;-85
2023/01/21 01:04:33;;;;;;;13.40;5.50;;;0.10;97.30;;;;;;5071972;28;20183;-85
2023/01/21 01:06:59;;;;;;;6.87;3.90;;;0.10;97.30;;;;;;5072088;28;21014;-85
2023/01/21 01:09:24;;;;;;;9.20;5.83;;;0.10;97.30;;;;;;5071939;28;20638;-85
2023/01/21 01:11:51;;;;;;;13.37;6.77;;;0.10;97.30;;;;;;5071944;28;20195;-85
2023/01/21 01:14:16;;;;;;;3.17;3.00;;;0.10;97.30;;;;;;5071304;28;20365;-86
2023/01/21 01:16:42;;;;;;;4.33;4.10;;;0.10;97.30;;;;;;5071406;28;20567;-86
2023/01/21 01:19:08;;;;;;;7.47;4.00;;;0.10;97.30;;;;;;5073006;28;20178;-85
2023/01/21 01:21:34;;;;;;;15.57;6.03;;;0.10;97.30;;;;;;5071275;28;20223;-87
2023/01/21 01:24:01;;;;;;;3.70;3.23;;;0.10;97.30;;;;;;5071519;28;20413;-85
2023/01/21 01:26:28;;;;;;;11.17;5.40;;;0.00;97.30;;;;;;5071555;28;20179;-85
2023/01/21 01:28:53;;;;;;;6.70;5.33;;;0.00;97.30;;;;;;5072032;28;20445;-86
2023/01/21 01:31:20;;;;;;;9.33;4.60;;;0.00;97.30;;;;;;5074748;28;20532;-85
2023/01/21 01:33:46;;;;;;;5.87;5.23;;;0.00;97.30;;;;;;5093290;28;20167;-84
2023/01/21 01:36:15;;;;;;;14.27;5.30;;;0.00;97.30;;;;;;5076052;28;20959;-86
2023/01/21 01:38:41;;;;;;;3.13;2.90;;;0.00;97.30;;;;;;5097777;28;20401;-85
2023/01/21 01:41:07;;;;;;;4.47;4.20;;;0.00;97.30;;;;;;5078447;28;20447;-84
2023/01/21 01:43:53;;;;;;;8.10;5.50;;;0.00;97.30;;;;;;5078684;28;20913;-84
2023/01/21 01:46:20;;;;;;;3.77;3.57;;;0.00;97.30;;;;;;5079277;28;20415;-84
2023/01/21 01:48:49;;;;;;;11.73;4.60;;;-0.10;97.30;;;;;;5078902;28;20408;-85
2023/01/21 01:51:18;;;;;;;13.73;3.47;;;-0.10;97.30;;;;;;5074910;28;20457;-84
2023/01/21 01:53:45;;;;;;;7.20;4.80;;;0.00;97.30;;;;;;5075882;28;20412;-85
2023/01/21 01:56:11;;;;;;;4.67;4.37;;;0.00;97.30;;;;;;5075709;28;20415;-87
2023/01/21 01:58:38;;;;;;;10.47;5.00;;;0.00;97.30;;;;;;5077275;28;20412;-85
2023/01/21 02:01:03;;;;;;;6.90;6.50;;;0.00;97.30;;;;;;5075500;28;20482;-84
2023/01/21 02:03:44;;;;;;;5.30;3.73;;;0.00;97.30;;;;;;5076909;28;20492;-85
2023/01/21 02:06:13;;;;;;;4.43;3.00;;;0.00;97.30;;;;;;5075418;28;20171;-85
2023/01/21 02:08:39;;;;;;;5.23;4.87;;;-0.10;97.30;;;;;;5076736;28;20412;-85
2023/01/21 02:11:12;;;;;;;3.60;3.40;;;0.00;97.30;;;;;;5075105;28;20485;-86
2023/01/21 02:13:38;;;;;;;6.63;3.80;;;-0.10;97.30;;;;;;5074583;28;20421;-84
2023/01/21 02:16:12;;;;;;;4.33;3.53;;;-0.10;97.30;;;;;;5074852;28;20429;-85
2023/01/21 02:18:40;;;;;;;10.23;5.87;;;-0.10;97.30;;;;;;5077117;28;20942;-85
2023/01/21 02:21:28;;;;;;;6.47;3.03;;;-0.20;97.30;;;;;;5075445;28;20441;-85
2023/01/21 02:24:24;;;;;;;6.07;4.27;;;-0.20;97.30;;;;;;5075712;28;20428;-86
2023/01/21 02:27:26;;;;;;;3.77;3.57;;;-0.20;97.30;;;;;;5075296;28;20416;-85
2023/01/21 02:30:08;;;;;;;4.40;4.10;;;-0.30;97.30;;;;;;5075361;28;20413;-85
2023/01/21 02:33:19;;;;;;;8.80;4.90;;;-0.30;97.30;;;;;;5075709;28;20908;-84
2023/01/21 02:35:58;;;;;;;8.13;3.07;;;-0.30;97.30;;;;;;5040738;28;20465;-86
2023/01/21 02:38:30;;;;;;;5.33;4.17;;;-0.40;97.30;;;;;;5071074;28;20416;-87
2023/01/21 02:41:26;;;;;;;4.00;3.70;;;-0.40;97.30;;;;;;5071403;28;20469;-87
2023/01/21 02:44:15;;;;;;;5.33;4.03;;;-0.40;97.30;;;;;;5055433;28;20441;-85
2023/01/21 02:47:10;;;;;;;17.73;6.00;;;-0.40;97.30;;;;;;5054758;28;20511;-85
2023/01/21 02:49:51;;;;;;;3.17;2.77;;;-0.40;97.30;;;;;;5047520;28;20423;-85
2023/01/21 02:52:20;;;;;;;6.07;4.20;;;-0.40;97.30;;;;;;5092678;22;20568;-87
2023/01/21 02:54:52;;;;;;;6.70;3.60;;;-0.40;97.30;;;;;;5058308;28;20458;-87
2023/01/21 02:57:51;;;;;;;9.67;2.10;;;-0.40;97.30;;;;;;5061340;28;20459;-86
2023/01/21 03:00:42;;;;;;;3.80;3.27;;;-0.40;97.30;;;;;;5052199;28;20446;-87
2023/01/21 03:03:15;;;;;;;8.87;7.67;;;-0.40;97.30;;;;;;5013330;28;20434;-87
2023/01/21 03:06:17;;;;;;;4.50;4.20;;;-0.40;97.30;;;;;;5032297;28;20751;-87
2023/01/21 03:08:58;;;;;;;3.23;2.93;;;-0.50;97.30;;;;;;5019629;28;20425;-86
2023/01/21 03:11:24;;;;;;;7.47;5.67;;;-0.50;97.30;;;;;;5031692;28;20454;-86
2023/01/21 03:16:55;;;;;;;3.80;3.60;;;-0.50;97.30;;;;;;5037291;28;20433;-87
2023/01/21 03:19:28;;;;;;;7.20;6.60;;;-0.50;97.30;;;;;;5041956;28;20419;-86
2023/01/21 03:21:56;;;;;;;4.10;2.10;;;-0.50;97.30;;;;;;5042947;28;20516;-87
2023/01/21 03:24:22;;;;;;;5.83;5.57;;;-0.50;97.30;;;;;;5037742;28;20501;-87
2023/01/21 03:26:51;;;;;;;4.93;4.00;;;-0.50;97.30;;;;;;5043437;28;20411;-86
2023/01/21 03:29:21;;;;;;;11.10;7.40;;;-0.50;97.30;;;;;;5043347;28;20419;-87
2023/01/21 03:31:52;;;;;;;3.10;2.90;;;-0.50;97.30;;;;;;5049552;28;20450;-87
2023/01/21 03:34:19;;;;;;;5.37;4.00;;;-0.50;97.30;;;;;;5041083;28;20546;-87
2023/01/21 03:37:00;;;;;;;2.80;2.60;;;-0.60;97.30;;;;;;5058659;28;20435;-87
2023/01/21 03:39:44;;;;;;;7.03;6.00;;;-0.60;97.30;;;;;;5055273;28;20712;-87
2023/01/21 03:42:12;;;;;;;7.50;3.00;;;-0.60;97.30;;;;;;5051244;28;20445;-87
2023/01/21 03:44:38;;;;;;;4.63;4.07;;;-0.60;97.30;;;;;;5051789;28;20484;-87
2023/01/21 03:47:25;;;;;;;16.33;5.47;;;-0.60;97.30;;;;;;5052684;28;20521;-86
2023/01/21 03:50:31;;;;;;;4.40;3.10;;;-0.60;97.30;;;;;;5051588;28;20480;-87
2023/01/21 03:52:57;;;;;;;10.00;5.77;;;-0.60;97.30;;;;;;5068624;28;20471;-87
2023/01/21 03:55:22;;;;;;;4.97;3.70;;;-0.60;97.30;;;;;;5054694;28;20465;-87
2023/01/21 03:57:48;;;;;;;7.93;4.03;;;-0.70;97.30;;;;;;5054141;28;20244;-87
2023/01/21 04:00:14;;;;;;;6.63;5.90;;;-0.70;97.30;;;;;;5071370;28;20182;-86
2023/01/21 04:02:40;;;;;;;6.83;4.83;;;-0.70;97.30;;;;;;5071762;28;20189;-87
2023/01/21 04:05:05;;;;;;;4.73;4.40;;;-0.70;97.30;;;;;;5054383;28;20900;-86
2023/01/21 04:07:31;;;;;;;7.03;5.00;;;-0.60;97.30;;;;;;5054268;28;20182;-87
2023/01/21 04:09:56;;;;;;;8.30;3.90;;;-0.60;97.30;;;;;;5054622;28;20187;-87
2023/01/21 04:12:22;;;;;;;6.27;4.23;;;-0.70;97.30;;;;;;5055078;28;20662;-87
2023/01/21 04:14:47;;;;;;;10.90;3.30;;;-0.60;97.30;;;;;;5073435;28;20236;-87
2023/01/21 04:17:13;;;;;;;7.67;4.30;;;-0.70;97.30;;;;;;5056018;28;20469;-87
2023/01/21 04:19:38;;;;;;;6.17;3.93;;;-0.70;97.30;;;;;;5072751;28;20207;-86
2023/01/21 04:22:04;;;;;;;4.83;4.57;;;-0.70;97.30;;;;;;5057339;28;20202;-87
2023/01/21 04:24:29;;;;;;;5.43;2.77;;;-0.70;97.30;;;;;;5071929;28;20179;-86
2023/01/21 04:26:55;;;;;;;4.30;3.93;;;-0.70;97.30;;;;;;5053845;28;20183;-86
2023/01/21 04:29:20;;;;;;;9.27;3.43;;;-0.80;97.30;;;;;;5054161;28;20171;-86
2023/01/21 04:31:47;;;;;;;5.90;3.90;;;-0.80;97.30;;;;;;5053752;28;20267;-87
2023/01/21 04:34:12;;;;;;;4.13;3.00;;;-0.80;97.30;;;;;;5052412;28;20693;-87
2023/01/21 04:36:38;;;;;;;3.27;2.90;;;-0.80;97.30;;;;;;5034119;28;20461;-87
2023/01/21 04:39:03;;;;;;;11.00;3.83;;;-0.80;97.30;;;;;;5033733;28;20179;-87
2023/01/21 04:41:29;;;;;;;7.17;5.13;;;-0.80;97.30;;;;;;5033622;28;20288;-87
2023/01/21 04:43:54;;;;;;;6.40;1.77;;;-0.70;97.30;;;;;;5033670;28;20180;-87
2023/01/21 04:46:20;;;;;;;3.30;2.00;;;-0.70;97.30;;;;;;5033473;28;20266;-87
2023/01/21 04:48:45;;;;;;;3.50;3.30;;;-0.80;97.30;;;;;;5037150;28;20183;-87
2023/01/21 04:51:11;;;;;;;6.30;4.33;;;-0.80;97.30;;;;;;5050194;28;20235;-87
2023/01/21 04:53:36;;;;;;;3.00;2.80;;;-0.80;97.30;;;;;;5050319;28;20321;-87
2023/01/21 04:56:02;;;;;;;9.20;4.80;;;-0.80;97.30;;;;;;5049839;28;20218;-87
2023/01/21 04:58:27;;;;;;;3.13;2.63;;;-0.80;97.30;;;;;;5049849;28;20180;-87
2023/01/21 05:00:54;;;;;;;5.00;4.70;;;-0.80;97.30;;;;;;5050151;28;20805;-87
2023/01/21 05:03:19;;;;;;;2.57;2.37;;;-0.80;97.30;;;;;;5050037;28;20176;-87
2023/01/21 05:05:45;;;;;;;6.70;2.27;;;-0.80;97.30;;;;;;5050277;28;20437;-87
2023/01/21 05:08:11;;;;;;;2.40;2.20;;;-0.80;97.30;;;;;;5050219;28;20194;-88
2023/01/21 05:10:36;;;;;;;9.30;4.23;;;-0.80;97.30;;;;;;5049576;28;20270;-87
2023/01/21 05:13:02;;;;;;;6.03;4.30;;;-0.80;97.30;;;;;;5050239;28;20226;-87
2023/01/21 05:15:28;;;;;;;2.40;2.20;;;-0.80;97.30;;;;;;5050158;28;20258;-87
2023/01/21 05:17:53;;;;;;;7.23;3.83;;;-0.80;97.30;;;;;;5049690;28;20422;-87
2023/01/21 05:20:19;;;;;;;7.30;3.83;;;-0.90;97.30;;;;;;5050047;28;20183;-87
2023/01/21 05:22:46;;;;;;;1.93;1.83;;;-0.90;97.30;;;;;;5049964;28;20572;-87
2023/01/21 05:25:12;;;;;;;4.10;2.57;;;-0.80;97.30;;;;;;5049912;28;20180;-87
2023/01/21 05:27:37;;;;;;;1.53;1.43;;;-0.80;97.30;;;;;;5050054;28;20483;-87
2023/01/21 05:30:03;;;;;;;1.87;1.77;;;-0.80;97.30;;;;;;5050159;28;20199;-87
2023/01/21 05:32:29;;;;;;;4.30;2.73;;;-0.80;97.30;;;;;;5050778;28;20310;-87
2023/01/21 05:34:54;;;;;;;6.63;3.67;;;-0.80;97.30;;;;;;5057135;28;20467;-87
2023/01/21 05:37:20;;;;;;;2.27;2.10;;;-0.80;97.30;;;;;;5053340;28;20171;-88
2023/01/21 05:39:45;;;;;;;3.93;3.30;;;-0.80;97.30;;;;;;5056488;28;20578;-87
2023/01/21 05:42:11;;;;;;;3.80;1.43;;;-0.80;97.30;;;;;;5053385;28;20734;-87
2023/01/21 05:44:36;;;;;;;3.17;2.40;;;-0.80;97.30;;;;;;5053024;28;20197;-87
2023/01/21 05:47:02;;;;;;;1.60;1.50;;;-0.80;97.30;;;;;;5053747;28;20187;-87
2023/01/21 05:49:27;;;;;;;4.37;3.03;;;-0.80;97.30;;;;;;5053009;28;20426;-87
2023/01/21 05:51:53;;;;;;;11.73;5.10;;;-0.80;97.30;;;;;;5049987;28;20223;-88
2023/01/21 05:54:18;;;;;;;3.77;3.60;;;-0.80;97.30;;;;;;5050190;28;20207;-87
2023/01/21 05:56:43;;;;;;;5.90;2.80;;;-0.70;97.30;;;;;;5047606;28;20210;-87
2023/01/21 05:59:09;;;;;;;5.30;3.30;;;-0.70;97.30;;;;;;5029112;28;20244;-87
2023/01/21 06:01:34;;;;;;;4.80;3.60;;;-0.80;97.30;;;;;;5029589;28;20655;-87
2023/01/21 06:04:00;;;;;;;3.23;2.57;;;-0.70;97.30;;;;;;5031179;28;20256;-88
2023/01/21 06:06:25;;;;;;;3.13;2.93;;;-0.70;97.30;;;;;;5029579;28;20284;-87
2023/01/21 06:08:51;;;;;;;7.83;3.60;;;-0.70;97.30;;;;;;5027447;28;20186;-87
2023/01/21 06:11:16;;;;;;;1.63;1.53;;;-0.70;97.30;;;;;;5028253;28;20204;-87
2023/01/21 06:13:42;;;;;;;2.53;2.33;;;-0.70;97.30;;;;;;5029556;28;20265;-87
2023/01/21 06:16:08;;;;;;;2.17;2.00;;;-0.70;97.30;;;;;;5029626;28;20211;-87
2023/01/21 06:18:33;;;;;;;2.40;2.20;;;-0.70;97.30;;;;;;5029536;28;20392;-87
2023/01/21 06:20:59;;;;;;;3.80;2.40;;;-0.70;97.30;;;;;;5031197;28;20188;-87
2023/01/21 06:23:26;;;;;;;4.90;4.60;;;-0.60;97.30;;;;;;5032573;28;20169;-87
2023/01/21 06:25:51;;;;;;;4.47;3.57;;;-0.60;97.30;;;;;;5033327;28;20415;-87
2023/01/21 06:28:17;;;;;;;3.23;3.00;;;-0.60;97.30;;;;;;5033562;28;20419;-87
2023/01/21 06:30:44;;;;;;;3.03;2.13;;;-0.60;97.30;;;;;;5033524;28;20172;-88
2023/01/21 06:33:09;;;;;;;3.07;2.30;;;-0.50;97.30;;;;;;5034109;28;20226;-88
2023/01/21 06:35:35;;;;;;;3.70;3.50;;;-0.50;97.30;;;;;;5046012;28;20857;-87
2023/01/21 06:38:02;;;;;;;4.00;1.40;;;-0.50;97.30;;;;;;5053094;28;20187;-87
2023/01/21 06:40:27;;;;;;;4.43;2.03;;;-0.50;97.30;;;;;;5052595;28;20937;-87
2023/01/21 06:42:53;;;;;;;5.80;2.93;;;-0.50;97.30;;;;;;5053456;28;20505;-87
2023/01/21 06:45:19;;;;;;;3.53;1.87;;;-0.50;97.30;;;;;;5052929;28;20172;-88
2023/01/21 06:47:44;;;;;;;7.97;2.97;;;-0.50;97.30;;;;;;5053080;28;20171;-87
2023/01/21 06:50:12;;;;;;;2.13;1.97;;;-0.50;97.30;;;;;;5053210;28;20200;-87
2023/01/21 06:52:41;;;;;;;4.90;3.33;;;-0.50;97.30;;;;;;5053062;28;20742;-87
2023/01/21 06:55:07;;;;;;;1.63;1.53;;;-0.50;97.30;;;;;;5052436;28;20803;-87
2023/01/21 06:57:32;;;;;;;2.00;1.90;;;-0.50;97.30;;;;;;5052403;28;20421;-88
2023/01/21 06:59:58;;;;;;;5.00;4.60;;;-0.50;97.30;;;;;;5052264;28;20422;-87
2023/01/21 07:02:23;;;;;;;8.80;2.93;;;-0.50;97.30;;;;;;5047631;28;20222;-87
2023/01/21 07:04:50;;;;;;;4.27;3.60;;;-0.50;97.30;;;;;;5032589;28;20176;-87
2023/01/21 07:07:16;;;;;;;4.10;2.83;;;-0.50;97.30;;;;;;5032609;28;20183;-87
2023/01/21 07:09:41;;;;;;;4.87;4.27;;;-0.50;97.30;;;;;;5032376;28;20785;-87
2023/01/21 07:12:07;;;;;;;5.40;5.10;;;-0.40;97.30;;;;;;5032600;28;20423;-87
2023/01/21 07:14:32;;;;;;;3.10;2.90;;;-0.50;97.30;;;;;;5034354;28;20504;-87
2023/01/21 07:16:58;;;;;;;11.73;4.93;;;-0.50;97.30;;;;;;5032415;28;20180;-87
2023/01/21 07:19:23;;;;;;;1.93;1.80;;;-0.40;97.30;;;;;;5033688;28;20537;-88
2023/01/21 07:21:49;;;;;;;4.87;3.03;;;-0.40;97.30;;;;;;5033997;28;20207;-87
2023/01/21 07:24:14;;;;;;;2.50;2.30;;;-0.40;97.30;;;;;;5049902;28;20270;-87
2023/01/21 07:26:40;;;;;;;3.17;2.77;;;-0.40;97.30;;;;;;5052353;28;20179;-87
2023/01/21 07:29:06;;;;;;;5.43;4.30;;;-0.40;97.30;;;;;;5051519;28;20225;-88
2023/01/21 07:31:32;;;;;;;2.77;2.57;;;-0.40;97.30;;;;;;5051725;28;20243;-87
2023/01/21 07:33:58;;;;;;;2.87;2.67;;;-0.40;97.30;;;;;;5051925;28;20270;-87
2023/01/21 07:36:23;;;;;;;2.23;2.03;;;-0.40;97.30;;;;;;5052112;28;20795;-87
2023/01/21 07:38:49;;;;;;;7.00;2.90;;;-0.30;97.30;;;;;;5042038;28;20271;-87
2023/01/21 07:41:14;;;;;;;3.40;3.20;;;-0.30;97.30;;;;;;5032025;28;20219;-87
2023/01/21 07:43:40;;;;;;;3.27;3.07;;;-0.30;97.30;;;;;;5032508;28;20199;-87
2023/01/21 07:46:05;;;;;;;2.80;2.60;;;-0.30;97.30;;;;;;5031848;28;20306;-87
2023/01/21 07:48:31;;;;;;;1.90;1.80;;;-0.30;97.30;;;;;;5031270;28;20172;-87
2023/01/21 07:50:57;;;;;;;6.60;3.10;;;-0.20;97.30;;;;;;5033019;28;20228;-87
2023/01/21 07:53:23;;;;;;;3.43;3.23;;;-0.20;97.30;;;;;;5052171;28;20190;-87
2023/01/21 07:55:48;;;;;;;2.20;1.70;;;-0.20;97.30;;;;;;5035167;28;20992;-87
2023/01/21 07:58:14;;;;;;;3.70;3.50;;;-0.20;97.30;;;;;;5054824;28;20272;-87
2023/01/21 08:00:39;;;;;;;5.53;2.83;;;-0.20;97.30;;;;;;5054543;28;20206;-86
2023/01/21 08:03:05;;;;;;;4.43;4.13;;;-0.20;97.30;;;;;;5072988;28;20179;-87
2023/01/21 08:05:31;;;;;;;3.30;2.33;;;-0.20;97.30;;;;;;5054605;28;20175;-87
2023/01/21 08:07:57;;;;;;;1.93;1.83;;;-0.20;97.30;;;;;;5053171;28;20182;-87
2023/01/21 08:10:23;;;;;;;5.47;5.17;;;-0.20;97.30;;;;;;5053184;28;20414;-87
2023/01/21 08:12:49;;;;;;;1.57;1.47;;;-0.20;97.30;;;;;;5053023;28;20518;-87
2023/01/21 08:15:14;;;;;;;2.67;2.50;;;-0.20;97.30;;;;;;5053624;28;20298;-87
2023/01/21 08:17:44;;;;;;;2.60;2.37;;;-0.20;97.30;;;;;;5053529;28;20312;-87
2023/01/21 08:20:11;;;;;;;1.73;1.63;;;-0.20;97.30;;;;;;5070988;28;20638;-87
2023/01/21 08:22:37;;;;;;;3.00;2.60;;;-0.30;97.30;;;;;;5053434;28;20494;-87
2023/01/21 08:25:04;;;;;;;4.47;4.17;;;-0.30;97.30;;;;;;5053617;28;20421;-87
2023/01/21 08:27:30;;;;;;;2.43;2.23;;;-0.30;97.30;;;;;;5052923;28;20421;-87
2023/01/21 08:29:55;;;;;;;12.83;3.30;;;-0.30;97.30;;;;;;5054793;28;20428;-87
2023/01/21 08:32:20;;;;;;;12.33;2.70;;;-0.30;97.30;;;;;;5054295;28;20302;-87
2023/01/21 08:34:46;;;;;;;2.03;1.93;;;-0.30;97.30;;;;;;5048500;28;20199;-87
2023/01/21 08:37:12;;;;;;;2.90;2.70;;;-0.20;97.30;;;;;;5034838;28;20198;-87
2023/01/21 08:39:37;;;;;;;3.30;3.10;;;-0.20;97.30;;;;;;5034659;28;20253;-87
2023/01/21 08:42:03;;;;;;;3.73;2.30;;;-0.20;97.30;;;;;;5034311;28;20434;-87
2023/01/21 08:44:28;;;;;;;1.60;1.50;;;-0.20;97.30;;;;;;5034101;28;20396;-87
2023/01/21 08:46:55;;;;;;;3.17;2.43;;;-0.20;97.30;;;;;;5034660;28;20266;-87
2023/01/21 08:49:21;;;;;;;2.97;2.40;;;-0.10;97.30;;;;;;5034352;28;20225;-87
2023/01/21 08:51:47;;;;;;;2.23;2.03;;;-0.10;97.30;;;;;;5065378;22;20683;-84
2023/01/21 08:54:13;;;;;;;8.00;2.20;;;-0.10;97.30;;;;;;5031503;28;20450;-84
2023/01/21 08:56:38;;;;;;;5.83;5.53;;;-0.10;97.30;;;;;;5032912;28;20439;-85
2023/01/21 08:59:04;;;;;;;2.60;2.40;;;-0.10;97.30;;;;;;5033591;28;20173;-87
2023/01/21 09:01:32;;;;;;;1.30;1.20;;;-0.10;97.30;;;;;;5033135;28;20188;-84
2023/01/21 09:03:59;;;;;;;3.50;3.30;;;-0.10;97.30;;;;;;5034086;28;20168;-84
2023/01/21 09:06:27;;;;;;;3.27;3.10;;;0.00;97.30;;;;;;5034036;28;20438;-86
2023/01/21 09:08:53;;;;;;;3.07;2.87;;;0.00;97.30;;;;;;5035468;28;20407;-85
2023/01/21 09:11:19;;;;;;;1.30;1.20;;;0.00;97.30;;;;;;5035417;28;20423;-86
2023/01/21 09:13:45;;;;;;;4.93;2.50;;;0.00;97.30;;;;;;5035061;28;20419;-86
2023/01/21 09:16:14;;;;;;;5.03;3.00;;;0.10;97.30;;;;;;5035473;28;20461;-84
2023/01/21 09:18:40;;;;;;;1.70;1.60;;;0.10;97.30;;;;;;5034248;28;20221;-87
2023/01/21 09:21:06;;;;;;;3.97;2.50;;;0.10;97.30;;;;;;5034368;28;20934;-87
2023/01/21 09:23:33;;;;;;;1.80;1.70;;;0.10;97.30;;;;;;5034711;28;20419;-84
2023/01/21 09:26:15;;;;;;;1.90;1.77;;;0.10;97.30;;;;;;5035941;28;20176;-83
2023/01/21 09:28:43;;;;;;;20.17;3.17;;;0.10;97.30;;;;;;5033811;28;20415;-84
2023/01/21 09:31:14;;;;;;;1.77;1.67;;;0.20;97.30;;;;;;5034828;28;20439;-86
2023/01/21 09:33:42;;;;;;;2.77;2.30;;;0.20;97.30;;;;;;5033852;28;20488;-85
2023/01/21 09:36:13;;;;;;;2.20;2.00;;;0.20;97.30;;;;;;5034120;28;21008;-85
2023/01/21 09:38:43;;;;;;;4.43;4.13;;;0.30;97.30;;;;;;5034951;28;20447;-84
2023/01/21 09:41:23;;;;;;;1.30;1.20;;;0.30;97.30;;;;;;5034704;28;20431;-85
2023/01/21 09:44:00;;;;;;;8.20;3.17;;;0.30;97.30;;;;;;5034847;28;20467;-85
2023/01/21 09:47:03;;;;;;;1.60;1.50;;;0.40;97.30;;;;;;5035252;28;20472;-87
2023/01/21 09:49:40;;;;;;;3.30;3.10;;;0.40;97.30;;;;;;5043917;28;20409;-87
2023/01/21 09:52:34;;;;;;;2.00;1.90;;;0.50;97.30;;;;;;5045592;28;20471;-90
2023/01/21 09:55:03;;;;;;;14.33;5.23;;;0.50;97.30;;;;;;5038810;28;20853;-85
2023/01/21 09:57:41;;;;;;;2.70;2.10;;;0.50;97.30;;;;;;5032221;28;20399;-86
2023/01/21 10:00:07;;;;;;;1.30;1.20;;;0.60;97.30;;;;;;5034850;28;20411;-85
2023/01/21 10:02:58;;;;;;;2.70;2.50;;;0.60;97.30;;;;;;5035153;28;20606;-85
2023/01/21 10:05:23;;;;;;;3.13;2.80;;;0.70;97.30;;;;;;5036346;28;20230;-85
2023/01/21 10:08:28;;;;;;;4.70;4.40;;;0.70;97.30;;;;;;5036651;28;20418;-87
2023/01/21 10:11:01;;;;;;;1.73;1.63;;;0.70;97.30;;;;;;5035030;28;20660;-85
2023/01/21 10:13:54;;;;;;;3.53;2.60;;;0.80;97.30;;;;;;5037128;28;20418;-85
2023/01/21 10:17:03;;;;;;;3.43;3.23;;;0.80;97.30;;;;;;5035636;28;20482;-85
2023/01/21 10:20:30;;;;;;;2.73;2.40;;;0.80;97.30;;;;;;5025065;28;20411;-87
2023/01/21 10:23:04;;;;;;;6.47;1.47;;;0.80;97.30;;;;;;4981110;28;21012;-86
2023/01/21 10:25:31;;;;;;;3.00;2.80;;;0.90;97.30;;;;;;5035338;28;20415;-85
2023/01/21 10:28:15;;;;;;;1.10;1.00;;;0.90;97.30;;;;;;5034638;28;20422;-86
2023/01/21 10:30:51;;;;;;;3.40;3.20;;;1.00;97.30;;;;;;5034588;28;20429;-87
2023/01/21 10:33:24;;;;;;;3.33;1.40;;;1.00;97.30;;;;;;5034954;28;20440;-87
2023/01/21 10:36:25;;;;;;;1.60;1.50;;;1.00;97.30;;;;;;5035053;28;20458;-86
2023/01/21 10:39:07;;;;;;;10.10;3.67;;;1.00;97.30;;;;;;5031169;28;20435;-85
2023/01/21 10:42:01;;;;;;;1.87;1.77;;;1.10;97.30;;;;;;5021338;28;20439;-86
2023/01/21 10:44:26;;;;;;;1.70;1.60;;;1.10;97.30;;;;;;5034266;28;20415;-86
2023/01/21 10:47:08;;;;;;;4.77;3.13;;;1.20;97.30;;;;;;5034483;28;20960;-85
2023/01/21 10:50:21;;;;;;;2.10;1.60;;;1.20;97.30;;;;;;5035522;28;20161;-86
2023/01/21 10:53:05;;;;;;;2.93;2.73;;;1.20;97.30;;;;;;4984865;28;20532;-85
2023/01/21 10:55:51;;;;;;;8.03;3.47;;;1.20;97.30;;;;;;5026890;28;20474;-86
2023/01/21 10:58:24;;;;;;;1.67;1.57;;;1.20;97.30;;;;;;5023361;28;20415;-86
2023/01/21 11:00:52;;;;;;;1.70;1.60;;;1.20;97.30;;;;;;5035647;28;20434;-86
2023/01/21 11:03:31;;;;;;;1.97;1.87;;;1.20;97.30;;;;;;5035466;28;20408;-85
2023/01/21 11:05:59;;;;;;;3.70;2.67;;;1.20;97.30;;;;;;5034175;28;20434;-85
2023/01/21 11:08:26;;;;;;;3.17;2.97;;;1.20;97.30;;;;;;5032207;28;20958;-86
2023/01/21 11:10:54;;;;;;;3.03;1.83;;;1.20;97.30;;;;;;5025753;28;20430;-86
2023/01/21 11:13:20;;;;;;;2.63;2.07;;;1.30;97.30;;;;;;5020103;28;20420;-86
2023/01/21 11:15:51;;;;;;;2.77;2.57;;;1.30;97.30;;;;;;5015363;28;20452;-85
2023/01/21 11:18:26;;;;;;;3.53;2.60;;;1.30;97.30;;;;;;5014651;28;20405;-86
2023/01/21 11:20:55;;;;;;;3.83;2.87;;;1.30;97.30;;;;;;5021545;28;21027;-88
2023/01/21 11:23:39;;;;;;;1.50;1.40;;;1.30;97.30;;;;;;5030719;28;20419;-86
2023/01/21 11:26:19;;;;;;;2.93;2.73;;;1.40;97.30;;;;;;5026278;28;20445;-85
2023/01/21 11:28:45;;;;;;;3.53;3.33;;;1.40;97.30;;;;;;5026696;28;20415;-86
2023/01/21 11:31:22;;;;;;;5.30;2.53;;;1.40;97.30;;;;;;5034839;28;20534;-86
2023/01/21 11:33:47;;;;;;;4.27;4.00;;;1.40;97.30;;;;;;5044162;28;20196;-84
2023/01/21 11:36:18;;;;;;;4.40;4.10;;;1.40;97.30;;;;;;5036196;28;20466;-85
2023/01/21 11:38:46;;;;;;;1.70;1.60;;;1.40;97.30;;;;;;5044371;28;20176;-85
2023/01/21 11:41:12;;;;;;;2.40;2.20;;;1.40;97.30;;;;;;5026311;28;20436;-85
2023/01/21 11:43:44;;;;;;;1.97;1.87;;;1.50;97.30;;;;;;5023594;28;20422;-86
2023/01/21 11:46:27;;;;;;;1.70;1.60;;;1.50;97.30;;;;;;5033139;28;20276;-86
2023/01/21 11:48:54;;;;;;;1.80;1.70;;;1.50;97.30;;;;;;5033343;28;21122;-84
2023/01/21 11:51:20;;;;;;;1.80;1.70;;;1.60;97.30;;;;;;5032100;28;20498;-86
2023/01/21 11:53:46;;;;;;;2.80;2.60;;;1.60;97.30;;;;;;5028063;28;20795;-86
2023/01/21 11:56:14;;;;;;;3.97;3.77;;;1.70;97.30;;;;;;5037274;28;20203;-85
2023/01/21 11:58:41;;;;;;;3.53;2.30;;;1.70;97.30;;;;;;5055104;28;20246;-86
2023/01/21 12:01:17;;;;;;;2.43;2.30;;;1.80;97.30;;;;;;5037304;28;20974;-85
2023/01/21 12:03:52;;;;;;;2.17;2.00;;;1.80;97.30;;;;;;5053476;28;20414;-85
2023/01/21 12:06:24;;;;;;;3.37;3.17;;;1.90;97.30;;;;;;5054253;28;20487;-84
2023/01/21 12:08:54;;;;;;;6.00;3.57;;;1.90;97.30;;;;;;5053866;28;20888;-85
2023/01/21 12:11:23;;;;;;;5.60;1.97;;;2.00;97.30;;;;;;5052638;28;20453;-86
2023/01/21 12:13:58;;;;;;;3.47;2.13;;;2.00;97.30;;;;;;5029087;28;20530;-89
2023/01/21 12:16:33;;;;;;;5.50;2.40;;;2.00;97.30;;;;;;5032983;28;20457;-86
2023/01/21 12:19:05;;;;;;;2.57;2.07;;;1.90;97.30;;;;;;5027448;28;20454;-86
2023/01/21 12:21:40;;;;;;;2.80;2.40;;;1.90;97.30;;;;;;5027065;28;20502;-85
2023/01/21 12:24:34;;;;;;;5.60;4.87;;;1.90;97.30;;;;;;5029650;28;20421;-87
2023/01/21 12:27:08;;;;;;;2.90;2.70;;;1.80;97.30;;;;;;5037802;28;20429;-87
2023/01/21 12:29:48;;;;;;;5.40;3.77;;;1.80;97.30;;;;;;5037190;28;20427;-87
2023/01/21 12:32:28;;;;;;;10.33;3.03;;;1.80;97.30;;;;;;5032313;28;20477;-86
2023/01/21 12:35:03;;;;;;;8.80;2.80;;;1.80;97.30;;;;;;5030106;28;20880;-87
2023/01/21 12:37:38;;;;;;;3.60;3.40;;;1.80;97.30;;;;;;5027272;28;20453;-88
2023/01/21 12:40:30;;;;;;;4.00;3.43;;;1.80;97.30;;;;;;5036160;28;20422;-85
2023/01/21 12:43:01;;;;;;;1.77;1.57;;;1.80;97.30;;;;;;5035280;28;20439;-86
2023/01/21 12:45:38;;;;;;;2.50;1.90;;;1.80;97.30;;;;;;5017122;28;20458;-87
2023/01/21 12:48:14;;;;;;;4.20;2.30;;;1.80;97.30;;;;;;5033867;28;20434;-85
2023/01/21 12:50:46;;;;;;;2.30;2.10;;;1.90;97.30;;;;;;5027343;28;20430;-87
2023/01/21 12:53:22;;;;;;;6.90;2.13;;;1.90;97.30;;;;;;5027392;28;20474;-88
2023/01/21 12:56:42;;;;;;;2.53;2.33;;;1.90;97.30;;;;;;5028043;28;20541;-86
2023/01/21 12:59:13;;;;;;;4.00;3.80;;;1.90;97.30;;;;;;4968148;28;20480;-86
2023/01/21 13:01:57;;;;;;;3.00;2.80;;;1.90;97.30;;;;;;5022518;28;20530;-86
2023/01/21 13:04:42;;;;;;;2.47;2.27;;;1.90;97.30;;;;;;5025534;28;20471;-85
2023/01/21 13:07:17;;;;;;;1.77;1.67;;;1.90;97.30;;;;;;5026131;28;20415;-85
2023/01/21 13:09:59;;;;;;;3.33;2.00;;;1.90;97.30;;;;;;5024624;28;20418;-85
2023/01/21 13:12:28;;;;;;;3.93;3.73;;;1.90;97.30;;;;;;5025344;28;20438;-85